Time;durP1;ratioP1;P1;durP2;ratioP2;P2;SDS_P1;SDS_P2;PMS_P1;PMS_P2;Temp;Humidity;BMP_temperature;BMP_pressure;BME280_temperature;BME280_humidity;BME280_pressure;Samples;Min_cycle;Max_cycle;Signal;HPM_P1;HPM_P2
2023/08/03 00:02:03;;;;;;;2.93;0.50;;;16.20;99.90;;;;;;5054691;28;20180;-71
2023/08/03 00:04:29;;;;;;;1.33;0.70;;;16.10;99.90;;;;;;5054917;28;20412;-71
2023/08/03 00:06:54;;;;;;;0.70;0.67;;;16.10;99.90;;;;;;5054893;28;20223;-70
2023/08/03 00:09:20;;;;;;;0.40;0.40;;;16.20;99.90;;;;;;5054633;28;20252;-70
2023/08/03 00:11:45;;;;;;;0.60;0.60;;;16.10;99.90;;;;;;5054923;28;20177;-71
2023/08/03 00:14:11;;;;;;;1.53;1.00;;;16.10;99.90;;;;;;5054712;28;20191;-71
2023/08/03 00:16:36;;;;;;;0.40;0.40;;;16.00;99.90;;;;;;5054687;28;20169;-71
2023/08/03 00:19:02;;;;;;;0.57;0.57;;;15.90;99.90;;;;;;5054265;28;20197;-71
2023/08/03 00:21:28;;;;;;;1.53;0.97;;;15.90;99.90;;;;;;5053908;28;20201;-71
2023/08/03 00:23:53;;;;;;;0.60;0.60;;;15.70;99.90;;;;;;5054780;28;20188;-71
2023/08/03 00:26:19;;;;;;;0.50;0.50;;;15.80;99.90;;;;;;5054661;28;20178;-70
2023/08/03 00:28:44;;;;;;;2.10;0.97;;;15.70;99.90;;;;;;5054431;28;20185;-70
2023/08/03 00:31:10;;;;;;;0.50;0.50;;;15.70;99.90;;;;;;5054089;28;20193;-70
2023/08/03 00:33:36;;;;;;;1.90;1.80;;;15.70;99.90;;;;;;5054583;28;20174;-71
2023/08/03 00:36:01;;;;;;;0.40;0.40;;;15.70;99.90;;;;;;5054351;28;20178;-70
2023/08/03 00:38:27;;;;;;;2.83;0.93;;;15.60;99.90;;;;;;5054179;28;20194;-69
2023/08/03 00:40:53;;;;;;;2.00;0.80;;;15.70;99.90;;;;;;5053915;28;20186;-70
2023/08/03 00:43:19;;;;;;;7.70;0.83;;;15.70;99.90;;;;;;5054288;28;20172;-70
2023/08/03 00:45:44;;;;;;;0.40;0.40;;;15.60;99.90;;;;;;5054138;28;20404;-71
2023/08/03 00:48:10;;;;;;;0.80;0.63;;;15.60;99.90;;;;;;5054095;28;20181;-69
2023/08/03 00:50:37;;;;;;;3.80;2.30;;;15.60;99.90;;;;;;5053672;28;20213;-70
2023/08/03 00:53:03;;;;;;;0.40;0.40;;;15.50;99.90;;;;;;5053831;28;20169;-71
2023/08/03 00:55:29;;;;;;;1.37;1.13;;;15.40;99.90;;;;;;5053896;28;20404;-70
2023/08/03 00:57:54;;;;;;;0.60;0.50;;;15.70;99.90;;;;;;5053901;28;20417;-70
2023/08/03 01:00:20;;;;;;;0.90;0.90;;;15.60;99.90;;;;;;5053831;28;20287;-70
2023/08/03 01:02:46;;;;;;;0.60;0.60;;;15.60;99.90;;;;;;5053578;28;20179;-70
2023/08/03 01:05:11;;;;;;;0.73;0.73;;;15.50;99.90;;;;;;5053648;28;20182;-70
2023/08/03 01:07:37;;;;;;;0.40;0.40;;;15.40;99.90;;;;;;5053683;28;20272;-71
2023/08/03 01:10:03;;;;;;;1.43;1.20;;;15.40;99.90;;;;;;5053509;28;20582;-71
2023/08/03 01:12:29;;;;;;;7.23;2.87;;;15.30;99.90;;;;;;5053518;28;20629;-70
2023/08/03 01:14:54;;;;;;;1.60;0.60;;;15.30;99.90;;;;;;5053741;28;20412;-71
2023/08/03 01:17:21;;;;;;;0.70;0.70;;;15.30;99.90;;;;;;5053710;28;20415;-70
2023/08/03 01:19:46;;;;;;;1.13;0.93;;;15.30;99.90;;;;;;5053336;28;20244;-71
2023/08/03 01:22:13;;;;;;;1.10;0.60;;;15.30;99.90;;;;;;5053489;28;20420;-70
2023/08/03 01:24:39;;;;;;;0.60;0.60;;;15.40;99.90;;;;;;5053429;28;20200;-70
2023/08/03 01:27:05;;;;;;;6.47;0.80;;;15.20;99.90;;;;;;5053450;28;20406;-71
2023/08/03 01:29:32;;;;;;;5.13;1.50;;;15.20;99.90;;;;;;5053219;28;20456;-70
2023/08/03 01:31:59;;;;;;;1.73;0.83;;;15.20;99.90;;;;;;5053038;28;20880;-70
2023/08/03 01:34:27;;;;;;;0.50;0.50;;;15.30;99.90;;;;;;5053134;28;20406;-71
2023/08/03 01:36:54;;;;;;;0.93;0.70;;;15.30;99.90;;;;;;5053293;28;20406;-70
2023/08/03 01:39:24;;;;;;;1.37;0.70;;;15.60;99.90;;;;;;5053165;28;20457;-71
2023/08/03 01:41:50;;;;;;;0.40;0.40;;;15.30;99.90;;;;;;5053202;28;20408;-69
2023/08/03 01:44:29;;;;;;;0.47;0.47;;;15.30;99.90;;;;;;5053332;28;20916;-71
2023/08/03 01:46:57;;;;;;;0.40;0.40;;;15.20;99.90;;;;;;5053182;28;20418;-70
2023/08/03 01:49:27;;;;;;;1.57;1.47;;;15.40;99.90;;;;;;5053334;28;20468;-71
2023/08/03 01:51:53;;;;;;;0.47;0.47;;;15.20;99.90;;;;;;5052953;28;20423;-70
2023/08/03 01:54:19;;;;;;;1.07;1.07;;;15.40;99.90;;;;;;5053166;28;20395;-69
2023/08/03 01:56:44;;;;;;;0.43;0.43;;;15.30;99.90;;;;;;5053283;28;20165;-69
2023/08/03 01:59:11;;;;;;;0.30;0.30;;;15.20;99.90;;;;;;5053124;28;20528;-70
2023/08/03 02:01:37;;;;;;;0.63;0.63;;;15.20;99.90;;;;;;5053077;28;20658;-69
2023/08/03 02:04:03;;;;;;;0.40;0.40;;;15.30;99.90;;;;;;5053033;28;20816;-71
2023/08/03 02:06:29;;;;;;;1.27;1.00;;;15.40;99.90;;;;;;5053053;28;20408;-69
2023/08/03 02:08:54;;;;;;;5.87;0.80;;;15.60;99.90;;;;;;5052906;28;20634;-70
2023/08/03 02:11:20;;;;;;;0.60;0.60;;;15.50;99.90;;;;;;5052717;28;20191;-70
2023/08/03 02:13:45;;;;;;;0.40;0.40;;;15.30;99.90;;;;;;5053080;28;20650;-70
2023/08/03 02:16:11;;;;;;;0.50;0.50;;;15.30;99.90;;;;;;5052806;28;20181;-71
2023/08/03 02:18:39;;;;;;;0.50;0.50;;;16.00;99.90;;;;;;5053099;28;20684;-71
2023/08/03 02:21:05;;;;;;;12.03;1.27;;;15.40;99.90;;;;;;5052715;28;20185;-69
2023/08/03 02:23:30;;;;;;;0.50;0.50;;;15.40;99.90;;;;;;5052804;28;20424;-69
2023/08/03 02:25:56;;;;;;;4.93;0.97;;;15.40;99.90;;;;;;5052975;28;20407;-70
2023/08/03 02:28:22;;;;;;;0.40;0.40;;;15.50;99.90;;;;;;5052897;28;20276;-69
2023/08/03 02:30:47;;;;;;;0.50;0.50;;;15.40;99.90;;;;;;5052474;28;20278;-70
2023/08/03 02:33:13;;;;;;;0.50;0.50;;;15.40;99.90;;;;;;5052807;28;20178;-69
2023/08/03 02:35:39;;;;;;;0.80;0.60;;;15.50;99.90;;;;;;5052674;28;20170;-70
2023/08/03 02:38:08;;;;;;;5.40;0.87;;;15.30;99.90;;;;;;5052763;28;20233;-71
2023/08/03 02:40:34;;;;;;;0.40;0.40;;;15.30;99.90;;;;;;5052634;28;20434;-71
2023/08/03 02:42:59;;;;;;;0.40;0.40;;;15.20;99.90;;;;;;5053371;28;20458;-71
2023/08/03 02:45:25;;;;;;;0.60;0.60;;;15.40;99.90;;;;;;5056345;28;20182;-70
2023/08/03 02:47:51;;;;;;;1.43;1.43;;;15.40;99.90;;;;;;5056024;28;20272;-71
2023/08/03 02:50:17;;;;;;;0.40;0.40;;;15.40;99.90;;;;;;5056290;28;20288;-71
2023/08/03 02:52:42;;;;;;;0.60;0.60;;;15.40;99.90;;;;;;5055880;28;20409;-70
2023/08/03 02:55:08;;;;;;;1.80;1.70;;;15.40;99.90;;;;;;5056100;28;20414;-70
2023/08/03 02:57:34;;;;;;;2.10;1.03;;;15.40;99.90;;;;;;5056304;28;20170;-71
2023/08/03 03:00:00;;;;;;;0.87;0.50;;;15.40;99.90;;;;;;5055997;28;20198;-71
2023/08/03 03:02:25;;;;;;;1.03;0.97;;;15.40;99.90;;;;;;5055884;28;20546;-71
2023/08/03 03:04:51;;;;;;;1.17;1.13;;;15.50;99.90;;;;;;5056060;28;20195;-69
2023/08/03 03:07:17;;;;;;;0.57;0.57;;;15.40;99.90;;;;;;5056021;28;20181;-70
2023/08/03 03:09:43;;;;;;;1.20;0.90;;;15.40;99.90;;;;;;5055950;28;20472;-69
2023/08/03 03:12:09;;;;;;;0.37;0.37;;;15.30;99.90;;;;;;5055903;28;20170;-70
2023/08/03 03:14:37;;;;;;;0.40;0.40;;;15.40;99.90;;;;;;5055761;28;20173;-70
2023/08/03 03:17:04;;;;;;;0.30;0.30;;;15.20;99.90;;;;;;5056159;28;20522;-69
2023/08/03 03:19:29;;;;;;;19.93;1.33;;;15.30;99.90;;;;;;5055803;28;20778;-70
2023/08/03 03:21:55;;;;;;;0.30;0.30;;;15.30;99.90;;;;;;5055025;28;20416;-71
2023/08/03 03:24:21;;;;;;;0.37;0.37;;;15.30;99.90;;;;;;5055272;28;20566;-71
2023/08/03 03:26:47;;;;;;;0.30;0.30;;;15.40;99.90;;;;;;5055627;28;20538;-70
2023/08/03 03:29:13;;;;;;;1.00;0.97;;;15.10;99.90;;;;;;5055270;28;20444;-70
2023/08/03 03:31:38;;;;;;;0.30;0.30;;;15.40;99.90;;;;;;5055354;28;20404;-70
2023/08/03 03:34:04;;;;;;;0.93;0.93;;;15.40;99.90;;;;;;5055389;28;20679;-71
2023/08/03 03:36:30;;;;;;;0.90;0.90;;;15.00;99.90;;;;;;5055010;28;20404;-70
2023/08/03 03:38:56;;;;;;;0.30;0.30;;;15.30;99.90;;;;;;5055332;28;20179;-71
2023/08/03 03:41:21;;;;;;;0.40;0.40;;;15.30;99.90;;;;;;5054919;28;20184;-70
2023/08/03 03:43:47;;;;;;;0.60;0.60;;;15.30;99.90;;;;;;5055292;28;20169;-70
2023/08/03 03:46:12;;;;;;;0.40;0.40;;;15.30;99.90;;;;;;5055390;28;20166;-70
2023/08/03 03:48:38;;;;;;;0.50;0.50;;;15.30;99.90;;;;;;5055134;28;20186;-71
2023/08/03 03:51:04;;;;;;;2.30;0.60;;;15.20;99.90;;;;;;5054680;28;20375;-69
2023/08/03 03:53:29;;;;;;;1.27;1.17;;;15.20;99.90;;;;;;5055052;28;20166;-70
2023/08/03 03:55:55;;;;;;;0.70;0.50;;;15.30;99.90;;;;;;5053795;28;20174;-70
2023/08/03 03:58:21;;;;;;;1.27;1.17;;;15.30;99.90;;;;;;5055209;28;20208;-71
2023/08/03 04:00:46;;;;;;;0.40;0.40;;;15.40;99.90;;;;;;5054777;28;20194;-70
2023/08/03 04:03:12;;;;;;;0.50;0.50;;;15.40;99.90;;;;;;5055039;28;20220;-70
2023/08/03 04:05:38;;;;;;;0.40;0.40;;;15.40;99.90;;;;;;5054685;28;20205;-69
2023/08/03 04:08:04;;;;;;;1.30;0.60;;;15.50;99.90;;;;;;5054917;28;20252;-69
2023/08/03 04:10:30;;;;;;;0.90;0.63;;;15.50;99.90;;;;;;5054619;28;20462;-70
2023/08/03 04:12:57;;;;;;;0.33;0.33;;;15.60;99.90;;;;;;5054476;28;20862;-71
2023/08/03 04:15:23;;;;;;;0.50;0.50;;;15.50;99.90;;;;;;5054645;28;20434;-70
2023/08/03 04:17:48;;;;;;;0.40;0.40;;;15.40;99.90;;;;;;5054821;28;20400;-71
2023/08/03 04:20:17;;;;;;;0.40;0.40;;;15.50;99.80;;;;;;5054525;28;20794;-71
2023/08/03 04:22:43;;;;;;;2.53;0.67;;;15.50;99.60;;;;;;5054336;28;20173;-70
2023/08/03 04:25:09;;;;;;;1.70;0.93;;;15.50;99.90;;;;;;5054437;28;20415;-69
2023/08/03 04:27:36;;;;;;;0.30;0.30;;;15.40;99.70;;;;;;5054434;28;20423;-71
2023/08/03 04:30:02;;;;;;;0.30;0.30;;;15.50;99.90;;;;;;5054337;28;20469;-71
2023/08/03 04:32:27;;;;;;;6.13;1.37;;;15.50;99.30;;;;;;5054269;28;20420;-70
2023/08/03 04:34:53;;;;;;;0.67;0.57;;;15.50;99.30;;;;;;5054174;28;20901;-70
2023/08/03 04:37:19;;;;;;;0.40;0.40;;;15.40;99.20;;;;;;5054380;28;20200;-69
2023/08/03 04:39:45;;;;;;;0.53;0.53;;;15.50;99.90;;;;;;5054162;28;20200;-71
2023/08/03 04:42:11;;;;;;;0.30;0.30;;;15.50;99.50;;;;;;5054017;28;20416;-70
2023/08/03 04:44:37;;;;;;;0.30;0.30;;;15.60;99.30;;;;;;5054129;28;20458;-70
2023/08/03 04:47:03;;;;;;;0.30;0.30;;;15.70;99.20;;;;;;5053976;28;20223;-71
2023/08/03 04:49:28;;;;;;;2.20;0.70;;;15.50;99.90;;;;;;5053871;28;20205;-71
2023/08/03 04:51:54;;;;;;;1.63;0.80;;;15.50;99.60;;;;;;5053745;28;20439;-69
2023/08/03 04:54:20;;;;;;;0.30;0.30;;;15.40;99.90;;;;;;5053914;28;20308;-70
2023/08/03 04:56:46;;;;;;;0.80;0.70;;;15.50;99.90;;;;;;5053891;28;20193;-69
2023/08/03 04:59:11;;;;;;;1.03;0.83;;;15.60;99.90;;;;;;5054034;28;20413;-71
2023/08/03 05:01:37;;;;;;;0.30;0.30;;;15.70;99.90;;;;;;5053592;28;20174;-69
2023/08/03 05:04:03;;;;;;;0.40;0.40;;;15.70;99.40;;;;;;5053820;28;20612;-69
2023/08/03 05:06:29;;;;;;;5.23;0.97;;;15.70;99.10;;;;;;5053278;28;20188;-70
2023/08/03 05:08:55;;;;;;;0.73;0.73;;;15.80;99.90;;;;;;5052327;28;20188;-70
2023/08/03 05:11:20;;;;;;;0.30;0.30;;;15.80;99.90;;;;;;5053561;28;20438;-70
2023/08/03 05:13:46;;;;;;;0.40;0.40;;;15.70;99.10;;;;;;5053677;28;20412;-70
2023/08/03 05:16:11;;;;;;;1.47;0.70;;;15.70;99.20;;;;;;5053629;28;20264;-69
2023/08/03 05:18:37;;;;;;;0.73;0.60;;;15.80;99.50;;;;;;5053447;28;20179;-70
2023/08/03 05:21:03;;;;;;;5.00;0.67;;;15.80;99.50;;;;;;5053161;28;20205;-71
2023/08/03 05:23:28;;;;;;;1.90;1.80;;;15.70;99.40;;;;;;5053404;28;20259;-70
2023/08/03 05:25:55;;;;;;;0.40;0.40;;;15.70;99.50;;;;;;5053645;28;20642;-70
2023/08/03 05:28:22;;;;;;;0.40;0.40;;;15.90;99.70;;;;;;5053438;28;20170;-70
2023/08/03 05:30:48;;;;;;;0.30;0.30;;;15.90;99.60;;;;;;5053210;28;20959;-71
2023/08/03 05:33:14;;;;;;;1.27;0.77;;;15.80;99.90;;;;;;5053169;28;20400;-71
2023/08/03 05:35:40;;;;;;;0.30;0.30;;;15.90;99.90;;;;;;5053241;28;20261;-69
2023/08/03 05:38:06;;;;;;;0.40;0.40;;;15.80;99.90;;;;;;5053235;28;20416;-70
2023/08/03 05:40:32;;;;;;;0.63;0.50;;;15.70;99.70;;;;;;5053066;28;20428;-70
2023/08/03 05:42:57;;;;;;;0.57;0.57;;;15.70;99.90;;;;;;5053157;28;20180;-70
2023/08/03 05:45:40;;;;;;;0.50;0.50;;;15.60;99.90;;;;;;5053113;28;20177;-70
2023/08/03 05:48:18;;;;;;;0.50;0.50;;;15.50;99.90;;;;;;5053381;28;20419;-71
2023/08/03 05:50:45;;;;;;;0.40;0.40;;;15.50;99.90;;;;;;5052687;28;20806;-70
2023/08/03 05:53:11;;;;;;;2.00;0.80;;;15.60;99.80;;;;;;5053295;28;20804;-70
2023/08/03 05:55:41;;;;;;;0.50;0.50;;;15.60;99.90;;;;;;5053231;28;20903;-70
2023/08/03 05:58:14;;;;;;;1.90;0.77;;;15.60;99.60;;;;;;5053133;28;20408;-71
2023/08/03 06:00:41;;;;;;;0.40;0.40;;;15.70;99.90;;;;;;5052843;28;20459;-70
2023/08/03 06:03:13;;;;;;;0.80;0.47;;;15.80;99.70;;;;;;5053030;28;20412;-71
2023/08/03 06:05:38;;;;;;;0.50;0.50;;;15.90;99.70;;;;;;5053136;28;20458;-71
2023/08/03 06:08:23;;;;;;;0.50;0.50;;;15.90;99.40;;;;;;5052997;28;20412;-70
2023/08/03 06:10:52;;;;;;;0.40;0.40;;;16.00;99.20;;;;;;5052595;28;20583;-69
2023/08/03 06:13:20;;;;;;;2.53;2.20;;;16.00;99.70;;;;;;5053057;28;20441;-70
2023/08/03 06:15:47;;;;;;;0.80;0.80;;;16.00;99.50;;;;;;5052828;28;20411;-71
2023/08/03 06:18:17;;;;;;;0.30;0.30;;;15.90;99.70;;;;;;5054010;28;20400;-71
2023/08/03 06:20:50;;;;;;;0.60;0.60;;;15.80;99.90;;;;;;5056522;28;20435;-70
2023/08/03 06:23:25;;;;;;;0.30;0.30;;;15.80;99.80;;;;;;5056791;28;20409;-71
2023/08/03 06:25:54;;;;;;;0.30;0.30;;;15.80;99.40;;;;;;5056873;28;20923;-69
2023/08/03 06:28:21;;;;;;;0.87;0.87;;;15.90;99.40;;;;;;5056722;28;20487;-70
2023/08/03 06:30:48;;;;;;;0.50;0.43;;;15.70;99.10;;;;;;5056335;28;20852;-70
2023/08/03 06:33:17;;;;;;;6.33;1.80;;;16.10;99.30;;;;;;5056798;28;20404;-70
2023/08/03 06:35:44;;;;;;;0.40;0.40;;;16.00;98.50;;;;;;5056453;28;20404;-71
2023/08/03 06:38:12;;;;;;;0.30;0.30;;;16.10;98.90;;;;;;5056496;28;20892;-70
2023/08/03 06:40:41;;;;;;;0.30;0.30;;;16.00;98.90;;;;;;5056316;28;20423;-70
2023/08/03 06:43:11;;;;;;;0.43;0.43;;;16.00;99.40;;;;;;5056476;28;20407;-71
2023/08/03 06:45:37;;;;;;;0.30;0.30;;;15.90;99.00;;;;;;5056719;28;20736;-70
2023/08/03 06:48:03;;;;;;;3.70;2.30;;;15.80;98.60;;;;;;5056217;28;20404;-69
2023/08/03 06:50:30;;;;;;;0.60;0.60;;;15.60;99.50;;;;;;5056195;28;20219;-70
2023/08/03 06:52:57;;;;;;;2.40;0.73;;;15.60;99.30;;;;;;5056092;28;20404;-70
2023/08/03 06:55:23;;;;;;;0.40;0.40;;;15.70;99.20;;;;;;5056344;28;20482;-70
2023/08/03 06:57:48;;;;;;;0.30;0.30;;;15.80;99.20;;;;;;5056295;28;20415;-70
2023/08/03 07:00:15;;;;;;;0.30;0.30;;;15.80;99.10;;;;;;5056309;28;20456;-69
2023/08/03 07:02:44;;;;;;;2.40;0.80;;;15.70;99.40;;;;;;5054302;28;20170;-69
2023/08/03 07:05:10;;;;;;;0.40;0.40;;;15.60;99.50;;;;;;5054620;28;20821;-71
2023/08/03 07:07:36;;;;;;;1.20;0.70;;;15.70;99.60;;;;;;5054663;28;20416;-71
2023/08/03 07:10:01;;;;;;;0.43;0.43;;;15.80;99.90;;;;;;5055552;28;20205;-71
2023/08/03 07:12:27;;;;;;;0.40;0.40;;;15.90;99.90;;;;;;5056230;28;20252;-70
2023/08/03 07:14:53;;;;;;;0.70;0.70;;;15.90;99.60;;;;;;5056393;28;20193;-69
2023/08/03 07:17:19;;;;;;;0.30;0.30;;;15.90;99.40;;;;;;5055996;28;20630;-71
2023/08/03 07:19:50;;;;;;;0.77;0.50;;;15.80;99.00;;;;;;5054531;28;20947;-70
2023/08/03 07:22:17;;;;;;;0.47;0.47;;;15.80;99.20;;;;;;5055572;28;20424;-70
2023/08/03 07:24:42;;;;;;;0.30;0.30;;;15.80;98.80;;;;;;5055986;28;20409;-71
2023/08/03 07:27:08;;;;;;;0.40;0.40;;;16.00;99.90;;;;;;5056069;28;20451;-71
2023/08/03 07:29:34;;;;;;;0.30;0.30;;;15.90;99.90;;;;;;5055586;28;20707;-69
2023/08/03 07:32:01;;;;;;;0.40;0.40;;;15.90;98.50;;;;;;5055347;28;20167;-72
2023/08/03 07:34:26;;;;;;;1.87;1.87;;;16.00;98.20;;;;;;5055523;28;20411;-71
2023/08/03 07:36:56;;;;;;;0.40;0.40;;;16.20;97.80;;;;;;5055649;28;20416;-71
2023/08/03 07:39:22;;;;;;;0.30;0.30;;;16.30;99.90;;;;;;5055688;28;20182;-71
2023/08/03 07:41:48;;;;;;;2.30;0.67;;;16.20;98.10;;;;;;5055372;28;20502;-70
2023/08/03 07:44:18;;;;;;;1.03;0.83;;;16.20;98.40;;;;;;5055880;28;20413;-71
2023/08/03 07:46:44;;;;;;;7.83;1.07;;;16.30;98.10;;;;;;5055204;28;20462;-70
2023/08/03 07:49:10;;;;;;;0.43;0.43;;;16.30;97.90;;;;;;5054918;28;20791;-71
2023/08/03 07:51:36;;;;;;;3.57;0.63;;;16.40;98.20;;;;;;5053671;28;20409;-70
2023/08/03 07:54:02;;;;;;;0.30;0.30;;;16.40;97.70;;;;;;5055609;28;20178;-69
2023/08/03 07:56:28;;;;;;;0.40;0.40;;;16.00;97.40;;;;;;5055606;28;20458;-70
2023/08/03 07:58:54;;;;;;;2.00;0.90;;;16.30;98.10;;;;;;5055125;28;20791;-69
2023/08/03 08:01:20;;;;;;;0.30;0.30;;;16.30;97.90;;;;;;5054440;28;20424;-70
2023/08/03 08:03:46;;;;;;;0.30;0.30;;;16.40;98.00;;;;;;5053696;28;20261;-69
2023/08/03 08:06:17;;;;;;;0.40;0.40;;;16.60;97.90;;;;;;5055105;28;20420;-69
2023/08/03 08:08:44;;;;;;;0.40;0.40;;;16.70;97.30;;;;;;5054974;28;20409;-69
2023/08/03 08:11:11;;;;;;;0.40;0.40;;;16.80;97.10;;;;;;5054571;28;20452;-71
2023/08/03 08:13:37;;;;;;;0.60;0.60;;;16.80;97.70;;;;;;5054852;28;20901;-70
2023/08/03 08:16:05;;;;;;;0.30;0.30;;;16.80;98.30;;;;;;5054710;28;20401;-70
2023/08/03 08:18:32;;;;;;;0.30;0.30;;;16.80;97.50;;;;;;5054646;28;20166;-70
2023/08/03 08:21:03;;;;;;;0.77;0.60;;;16.90;99.90;;;;;;5054414;28;20545;-70
2023/08/03 08:23:29;;;;;;;1.27;0.60;;;16.90;97.70;;;;;;5054693;28;20432;-70
2023/08/03 08:25:54;;;;;;;1.57;0.80;;;17.40;97.10;;;;;;5054760;28;20493;-70
2023/08/03 08:28:20;;;;;;;0.30;0.30;;;18.00;96.30;;;;;;5054585;28;20400;-70
2023/08/03 08:30:46;;;;;;;0.50;0.50;;;18.50;95.90;;;;;;5054256;28;20209;-71
2023/08/03 08:33:18;;;;;;;0.40;0.40;;;18.90;95.60;;;;;;5054335;28;20247;-70
2023/08/03 08:35:46;;;;;;;0.43;0.43;;;19.20;95.50;;;;;;5054335;28;20488;-71
2023/08/03 08:38:14;;;;;;;0.57;0.57;;;19.70;94.50;;;;;;5054267;28;20409;-71
2023/08/03 08:40:41;;;;;;;0.90;0.90;;;20.50;93.50;;;;;;5053255;28;20952;-71
2023/08/03 08:43:08;;;;;;;0.40;0.40;;;20.90;90.90;;;;;;5054115;28;20543;-72
2023/08/03 08:45:37;;;;;;;0.97;0.60;;;20.90;91.40;;;;;;5054183;28;20824;-70
2023/08/03 08:48:04;;;;;;;0.30;0.30;;;20.50;91.10;;;;;;5054283;28;20397;-71
2023/08/03 08:50:30;;;;;;;1.80;0.87;;;20.10;90.50;;;;;;5053747;28;20469;-71
2023/08/03 08:52:56;;;;;;;1.47;1.17;;;19.80;92.50;;;;;;5053833;28;20412;-69
2023/08/03 08:55:30;;;;;;;0.40;0.40;;;19.60;92.40;;;;;;5053977;28;20404;-69
2023/08/03 08:57:57;;;;;;;0.30;0.30;;;19.40;92.70;;;;;;5053855;28;20492;-71
2023/08/03 09:00:25;;;;;;;0.30;0.30;;;19.40;93.00;;;;;;5053749;28;20438;-70
2023/08/03 09:03:00;;;;;;;0.60;0.50;;;19.30;93.40;;;;;;5053681;28;20423;-70
2023/08/03 09:05:26;;;;;;;0.40;0.40;;;19.10;92.20;;;;;;5053687;28;20416;-70
2023/08/03 09:08:16;;;;;;;2.17;0.67;;;18.80;93.70;;;;;;5053745;28;20426;-70
2023/08/03 09:10:55;;;;;;;0.33;0.33;;;18.60;93.60;;;;;;5053496;28;20814;-71
2023/08/03 09:13:31;;;;;;;0.30;0.30;;;18.50;93.70;;;;;;5053735;28;20417;-70
2023/08/03 09:15:57;;;;;;;0.30;0.30;;;18.50;94.30;;;;;;5053717;28;20410;-70
2023/08/03 09:18:27;;;;;;;0.30;0.30;;;18.50;94.30;;;;;;5053506;28;20930;-71
2023/08/03 09:21:11;;;;;;;0.80;0.50;;;18.40;92.50;;;;;;5053397;28;20427;-69
2023/08/03 09:23:37;;;;;;;0.50;0.50;;;18.40;92.90;;;;;;5053651;28;20464;-71
2023/08/03 09:26:05;;;;;;;0.80;0.80;;;18.50;99.90;;;;;;5053378;28;20419;-71
2023/08/03 09:28:57;;;;;;;0.40;0.40;;;18.60;93.60;;;;;;5053361;28;20175;-71
2023/08/03 09:31:24;;;;;;;0.40;0.40;;;18.60;93.60;;;;;;5053098;28;20453;-70
2023/08/03 09:34:00;;;;;;;0.30;0.30;;;18.70;94.40;;;;;;5053429;28;20399;-71
2023/08/03 09:36:27;;;;;;;0.30;0.30;;;18.80;93.80;;;;;;5053516;28;20486;-71
2023/08/03 09:39:08;;;;;;;5.73;1.43;;;18.90;92.90;;;;;;5053408;28;20872;-70
2023/08/03 09:41:35;;;;;;;0.50;0.50;;;19.10;93.50;;;;;;5052961;28;20411;-70
2023/08/03 09:44:03;;;;;;;0.50;0.50;;;19.40;92.90;;;;;;5053312;28;20796;-71
2023/08/03 09:46:30;;;;;;;0.40;0.40;;;19.50;91.60;;;;;;5053375;28;20392;-71
2023/08/03 09:48:56;;;;;;;0.30;0.30;;;19.70;91.60;;;;;;5053167;28;20388;-71
2023/08/03 09:51:27;;;;;;;0.80;0.80;;;19.70;92.40;;;;;;5052905;28;20845;-71
2023/08/03 09:53:59;;;;;;;0.60;0.60;;;19.70;93.60;;;;;;5057329;28;20433;-71
2023/08/03 09:56:28;;;;;;;0.30;0.30;;;19.70;93.50;;;;;;5057394;28;20403;-71
2023/08/03 09:58:59;;;;;;;0.30;0.30;;;19.90;92.10;;;;;;5057293;28;20396;-70
2023/08/03 10:01:27;;;;;;;0.30;0.30;;;19.90;92.10;;;;;;5057014;28;20453;-71
2023/08/03 10:03:58;;;;;;;0.30;0.30;;;19.70;92.60;;;;;;5057269;28;20401;-71
2023/08/03 10:06:32;;;;;;;3.07;1.90;;;20.10;93.50;;;;;;5057327;28;20381;-72
2023/08/03 10:09:03;;;;;;;2.93;0.50;;;21.50;92.10;;;;;;5055788;28;20849;-70
2023/08/03 10:12:07;;;;;;;0.50;0.50;;;22.40;91.20;;;;;;5056728;28;20523;-71
2023/08/03 10:14:36;;;;;;;0.40;0.40;;;22.50;89.50;;;;;;5055013;28;20426;-71
2023/08/03 10:17:04;;;;;;;0.40;0.40;;;22.00;88.50;;;;;;5056707;28;20410;-71
2023/08/03 10:19:31;;;;;;;0.50;0.50;;;20.70;99.90;;;;;;5056984;28;20404;-70
2023/08/03 10:21:57;;;;;;;0.30;0.30;;;20.60;92.60;;;;;;5056603;28;20413;-70
2023/08/03 10:24:23;;;;;;;0.40;0.40;;;20.10;93.00;;;;;;5057044;28;20422;-71
2023/08/03 10:26:54;;;;;;;0.30;0.30;;;19.60;93.40;;;;;;5056653;28;20407;-71
2023/08/03 10:29:51;;;;;;;2.17;0.53;;;19.30;99.90;;;;;;5056773;28;20208;-70
2023/08/03 10:32:27;;;;;;;0.30;0.30;;;19.00;95.00;;;;;;5056570;28;20412;-71
2023/08/03 10:34:58;;;;;;;0.83;0.53;;;18.90;95.70;;;;;;5056573;28;20866;-71
2023/08/03 10:37:24;;;;;;;0.30;0.30;;;19.00;96.40;;;;;;5056565;28;20404;-71
2023/08/03 10:39:53;;;;;;;0.40;0.40;;;19.20;96.00;;;;;;5056386;28;20502;-70
2023/08/03 10:42:30;;;;;;;0.30;0.30;;;19.40;95.80;;;;;;5056297;28;20491;-70
2023/08/03 10:45:21;;;;;;;0.30;0.30;;;19.50;94.80;;;;;;5056590;28;20487;-69
2023/08/03 10:47:47;;;;;;;0.33;0.33;;;19.80;95.40;;;;;;5056366;28;20404;-70
2023/08/03 10:50:12;;;;;;;0.40;0.40;;;20.20;94.40;;;;;;5056060;28;20528;-71
2023/08/03 10:52:38;;;;;;;1.53;0.83;;;20.60;94.70;;;;;;5056092;28;20175;-70
2023/08/03 10:55:26;;;;;;;0.30;0.30;;;20.90;93.70;;;;;;5056297;28;20359;-71
2023/08/03 10:57:54;;;;;;;0.60;0.50;;;20.90;93.70;;;;;;5056444;28;20221;-70
2023/08/03 11:00:21;;;;;;;0.50;0.50;;;21.00;93.60;;;;;;5056075;28;20512;-71
2023/08/03 11:02:47;;;;;;;0.50;0.30;;;21.10;93.60;;;;;;5055889;28;20414;-70
2023/08/03 11:05:13;;;;;;;0.40;0.40;;;21.00;93.00;;;;;;5055365;28;20550;-70
2023/08/03 11:07:41;;;;;;;1.07;0.40;;;20.90;93.30;;;;;;5055979;28;20178;-71
2023/08/03 11:10:11;;;;;;;0.30;0.30;;;21.00;93.10;;;;;;5056071;28;20205;-71
2023/08/03 11:12:40;;;;;;;0.50;0.50;;;21.30;93.40;;;;;;5055786;28;20865;-71
2023/08/03 11:15:07;;;;;;;0.30;0.30;;;21.50;92.40;;;;;;5056450;28;20498;-71
2023/08/03 11:17:34;;;;;;;0.53;0.53;;;21.90;91.90;;;;;;5055820;28;20888;-70
2023/08/03 11:20:01;;;;;;;0.40;0.30;;;22.20;91.40;;;;;;5055950;28;20510;-70
2023/08/03 11:22:28;;;;;;;0.30;0.30;;;;;;;;;;5055583;28;20408;-71
2023/08/03 11:25:04;;;;;;;1.47;0.57;;;22.00;90.50;;;;;;5055857;28;20403;-71
2023/08/03 11:27:30;;;;;;;0.67;0.67;;;21.90;91.60;;;;;;5055780;28;20407;-71
2023/08/03 11:29:56;;;;;;;0.50;0.50;;;21.70;91.90;;;;;;5055441;28;21040;-70
2023/08/03 11:32:24;;;;;;;0.70;0.50;;;21.50;91.20;;;;;;5055419;28;20372;-71
2023/08/03 11:35:03;;;;;;;1.80;0.50;;;21.20;90.70;;;;;;5055408;28;20446;-71
2023/08/03 11:37:30;;;;;;;0.30;0.30;;;21.10;91.90;;;;;;5055559;28;20450;-71
2023/08/03 11:39:56;;;;;;;0.40;0.40;;;21.30;90.10;;;;;;5055474;28;20521;-71
2023/08/03 11:42:22;;;;;;;0.70;0.47;;;21.60;90.70;;;;;;5055212;28;20464;-71
2023/08/03 11:44:48;;;;;;;0.53;0.53;;;21.80;90.10;;;;;;5055330;28;20409;-71
2023/08/03 11:47:13;;;;;;;0.30;0.30;;;21.90;91.60;;;;;;5055321;28;20415;-71
2023/08/03 11:49:39;;;;;;;2.47;1.00;;;21.90;89.00;;;;;;5055100;28;20229;-71
2023/08/03 11:52:05;;;;;;;0.30;0.30;;;21.60;88.20;;;;;;5054998;28;20180;-71
2023/08/03 11:54:34;;;;;;;0.53;0.53;;;21.50;91.20;;;;;;5055245;28;20177;-71
2023/08/03 11:59:46;;;;;;;0.30;0.30;;;21.60;88.70;;;;;;5055274;28;20434;-71
2023/08/03 12:02:12;;;;;;;0.30;0.30;;;21.50;90.40;;;;;;5054852;28;20421;-71
2023/08/03 12:04:39;;;;;;;0.30;0.30;;;21.40;86.70;;;;;;5055055;28;20496;-71
2023/08/03 12:07:06;;;;;;;0.30;0.30;;;21.20;87.80;;;;;;5054770;28;20207;-71
2023/08/03 12:09:37;;;;;;;0.30;0.30;;;21.10;99.90;;;;;;5054887;28;20461;-70
2023/08/03 12:12:04;;;;;;;0.30;0.30;;;21.30;86.90;;;;;;5054736;28;20405;-71
2023/08/03 12:14:30;;;;;;;0.50;0.50;;;21.20;85.80;;;;;;5054782;28;20413;-71
2023/08/03 12:16:56;;;;;;;0.40;0.40;;;20.80;86.40;;;;;;5053728;28;20401;-71
2023/08/03 12:19:21;;;;;;;0.50;0.50;;;21.30;98.40;;;;;;5054747;28;20208;-72
2023/08/03 12:21:47;;;;;;;0.43;0.43;;;21.30;86.90;;;;;;5054471;28;20175;-70
2023/08/03 12:24:13;;;;;;;0.60;0.50;;;21.30;87.10;;;;;;5054579;28;20178;-71
2023/08/03 12:26:40;;;;;;;0.40;0.40;;;21.40;88.00;;;;;;5054614;28;20409;-71
2023/08/03 12:29:06;;;;;;;0.40;0.40;;;21.70;86.50;;;;;;5054533;28;20408;-72
2023/08/03 12:31:32;;;;;;;0.30;0.30;;;21.80;90.20;;;;;;5054161;28;20433;-72
2023/08/03 12:33:58;;;;;;;0.40;0.40;;;22.10;89.20;;;;;;5053134;28;20649;-71
2023/08/03 12:36:25;;;;;;;0.40;0.40;;;22.20;87.80;;;;;;5054305;28;20409;-72
2023/08/03 12:38:51;;;;;;;0.60;0.60;;;22.10;85.60;;;;;;5054308;28;20170;-71
2023/08/03 12:41:20;;;;;;;0.40;0.40;;;22.10;83.70;;;;;;5054050;28;20518;-70
2023/08/03 12:43:47;;;;;;;0.30;0.30;;;22.10;84.90;;;;;;5054291;28;20408;-71
2023/08/03 12:46:13;;;;;;;0.40;0.40;;;22.10;83.70;;;;;;5054108;28;20415;-71
2023/08/03 12:48:39;;;;;;;0.30;0.30;;;;;;;;;;5054255;28;20859;-72
2023/08/03 12:51:05;;;;;;;0.60;0.60;;;22.00;82.00;;;;;;5053650;28;20288;-71
2023/08/03 12:53:34;;;;;;;0.43;0.43;;;21.90;82.50;;;;;;5054034;28;20919;-72